sensor_id;sensor_type;location;lat;lon;timestamp;P1;durP1;ratioP1;P2;durP2;ratioP2
21677;SDS011;11000;50.360;7.582;2022-07-23T00:01:02;10.63;;;9.03;;
21677;SDS011;11000;50.360;7.582;2022-07-23T00:03:23;9.60;;;8.43;;
21677;SDS011;11000;50.360;7.582;2022-07-23T00:05:43;10.53;;;8.50;;
21677;SDS011;11000;50.360;7.582;2022-07-23T00:08:04;12.17;;;9.33;;
21677;SDS011;11000;50.360;7.582;2022-07-23T00:10:25;12.80;;;8.80;;
21677;SDS011;11000;50.360;7.582;2022-07-23T00:12:46;11.47;;;8.77;;
21677;SDS011;11000;50.360;7.582;2022-07-23T00:15:07;10.27;;;9.00;;
21677;SDS011;11000;50.360;7.582;2022-07-23T00:17:28;11.10;;;8.97;;
21677;SDS011;11000;50.360;7.582;2022-07-23T00:19:49;10.73;;;8.83;;
21677;SDS011;11000;50.360;7.582;2022-07-23T00:22:09;11.87;;;8.67;;
21677;SDS011;11000;50.360;7.582;2022-07-23T00:24:30;11.80;;;9.17;;
21677;SDS011;11000;50.360;7.582;2022-07-23T00:26:50;10.60;;;9.00;;
21677;SDS011;11000;50.360;7.582;2022-07-23T00:29:13;10.27;;;8.33;;
21677;SDS011;11000;50.360;7.582;2022-07-23T00:31:33;10.40;;;8.70;;
21677;SDS011;11000;50.360;7.582;2022-07-23T00:33:54;9.57;;;8.53;;
21677;SDS011;11000;50.360;7.582;2022-07-23T00:36:20;9.83;;;8.77;;
21677;SDS011;11000;50.360;7.582;2022-07-23T00:38:41;9.63;;;8.67;;
21677;SDS011;11000;50.360;7.582;2022-07-23T00:41:01;9.83;;;8.83;;
21677;SDS011;11000;50.360;7.582;2022-07-23T00:43:22;10.87;;;8.00;;
21677;SDS011;11000;50.360;7.582;2022-07-23T00:45:43;11.63;;;8.57;;
21677;SDS011;11000;50.360;7.582;2022-07-23T00:48:05;10.13;;;8.53;;
21677;SDS011;11000;50.360;7.582;2022-07-23T00:50:26;9.20;;;8.30;;
21677;SDS011;11000;50.360;7.582;2022-07-23T00:52:47;9.77;;;8.77;;
21677;SDS011;11000;50.360;7.582;2022-07-23T00:55:08;14.63;;;9.20;;
21677;SDS011;11000;50.360;7.582;2022-07-23T00:57:30;10.37;;;7.90;;
21677;SDS011;11000;50.360;7.582;2022-07-23T00:59:51;9.77;;;8.20;;
21677;SDS011;11000;50.360;7.582;2022-07-23T01:02:11;9.17;;;8.27;;
21677;SDS011;11000;50.360;7.582;2022-07-23T01:04:32;14.27;;;8.87;;
21677;SDS011;11000;50.360;7.582;2022-07-23T01:06:52;10.53;;;9.27;;
21677;SDS011;11000;50.360;7.582;2022-07-23T01:09:13;10.17;;;8.43;;
21677;SDS011;11000;50.360;7.582;2022-07-23T01:11:34;10.77;;;8.80;;
21677;SDS011;11000;50.360;7.582;2022-07-23T01:13:55;12.93;;;9.50;;
21677;SDS011;11000;50.360;7.582;2022-07-23T01:16:16;10.53;;;9.20;;
21677;SDS011;11000;50.360;7.582;2022-07-23T01:18:36;9.90;;;8.77;;
21677;SDS011;11000;50.360;7.582;2022-07-23T01:20:57;10.10;;;8.90;;
21677;SDS011;11000;50.360;7.582;2022-07-23T01:23:17;9.70;;;8.50;;
21677;SDS011;11000;50.360;7.582;2022-07-23T01:25:42;10.97;;;8.73;;
21677;SDS011;11000;50.360;7.582;2022-07-23T01:28:08;11.33;;;8.80;;
21677;SDS011;11000;50.360;7.582;2022-07-23T01:30:28;10.53;;;8.47;;
21677;SDS011;11000;50.360;7.582;2022-07-23T01:32:49;10.90;;;9.37;;
21677;SDS011;11000;50.360;7.582;2022-07-23T01:35:09;13.37;;;9.43;;
21677;SDS011;11000;50.360;7.582;2022-07-23T01:37:30;10.33;;;8.80;;
21677;SDS011;11000;50.360;7.582;2022-07-23T01:39:51;11.17;;;8.67;;
21677;SDS011;11000;50.360;7.582;2022-07-23T01:42:11;10.83;;;9.03;;
21677;SDS011;11000;50.360;7.582;2022-07-23T01:44:32;10.20;;;9.20;;
21677;SDS011;11000;50.360;7.582;2022-07-23T01:46:52;13.57;;;9.63;;
21677;SDS011;11000;50.360;7.582;2022-07-23T01:49:13;11.83;;;9.03;;
21677;SDS011;11000;50.360;7.582;2022-07-23T01:51:33;11.23;;;9.97;;
21677;SDS011;11000;50.360;7.582;2022-07-23T01:53:54;12.33;;;9.50;;
21677;SDS011;11000;50.360;7.582;2022-07-23T01:56:14;10.50;;;9.33;;
21677;SDS011;11000;50.360;7.582;2022-07-23T01:58:35;11.37;;;9.60;;
21677;SDS011;11000;50.360;7.582;2022-07-23T02:00:55;10.43;;;9.37;;
21677;SDS011;11000;50.360;7.582;2022-07-23T02:03:16;9.67;;;8.70;;
21677;SDS011;11000;50.360;7.582;2022-07-23T02:05:37;13.87;;;9.67;;
21677;SDS011;11000;50.360;7.582;2022-07-23T02:07:58;10.70;;;8.80;;
21677;SDS011;11000;50.360;7.582;2022-07-23T02:10:19;11.73;;;9.40;;
21677;SDS011;11000;50.360;7.582;2022-07-23T02:12:40;13.07;;;9.37;;
21677;SDS011;11000;50.360;7.582;2022-07-23T02:15:00;12.33;;;9.73;;
21677;SDS011;11000;50.360;7.582;2022-07-23T02:17:21;10.93;;;9.37;;
21677;SDS011;11000;50.360;7.582;2022-07-23T02:19:41;10.17;;;8.63;;
21677;SDS011;11000;50.360;7.582;2022-07-23T02:22:02;11.60;;;9.77;;
21677;SDS011;11000;50.360;7.582;2022-07-23T02:24:22;14.20;;;9.93;;
21677;SDS011;11000;50.360;7.582;2022-07-23T02:26:43;10.37;;;8.77;;
21677;SDS011;11000;50.360;7.582;2022-07-23T02:29:03;14.97;;;9.70;;
21677;SDS011;11000;50.360;7.582;2022-07-23T02:31:24;12.43;;;9.80;;
21677;SDS011;11000;50.360;7.582;2022-07-23T02:33:45;13.23;;;9.70;;
21677;SDS011;11000;50.360;7.582;2022-07-23T02:36:05;12.53;;;9.90;;
21677;SDS011;11000;50.360;7.582;2022-07-23T02:38:26;10.37;;;9.27;;
21677;SDS011;11000;50.360;7.582;2022-07-23T02:40:47;11.87;;;9.70;;
21677;SDS011;11000;50.360;7.582;2022-07-23T02:43:07;10.47;;;8.97;;
21677;SDS011;11000;50.360;7.582;2022-07-23T02:45:28;9.80;;;8.80;;
21677;SDS011;11000;50.360;7.582;2022-07-23T02:47:48;10.40;;;9.30;;
21677;SDS011;11000;50.360;7.582;2022-07-23T02:50:09;15.23;;;9.37;;
21677;SDS011;11000;50.360;7.582;2022-07-23T02:52:30;13.23;;;9.37;;
21677;SDS011;11000;50.360;7.582;2022-07-23T02:54:51;11.10;;;8.90;;
21677;SDS011;11000;50.360;7.582;2022-07-23T02:57:11;10.53;;;9.43;;
21677;SDS011;11000;50.360;7.582;2022-07-23T02:59:32;11.40;;;8.43;;
21677;SDS011;11000;50.360;7.582;2022-07-23T03:01:52;9.77;;;8.40;;
21677;SDS011;11000;50.360;7.582;2022-07-23T03:04:13;10.53;;;9.20;;
21677;SDS011;11000;50.360;7.582;2022-07-23T03:06:33;10.53;;;8.70;;
21677;SDS011;11000;50.360;7.582;2022-07-23T03:08:54;10.07;;;8.40;;
21677;SDS011;11000;50.360;7.582;2022-07-23T03:11:14;10.17;;;8.57;;
21677;SDS011;11000;50.360;7.582;2022-07-23T03:13:35;10.30;;;8.90;;
21677;SDS011;11000;50.360;7.582;2022-07-23T03:15:55;10.67;;;8.87;;
21677;SDS011;11000;50.360;7.582;2022-07-23T03:18:16;9.80;;;8.03;;
21677;SDS011;11000;50.360;7.582;2022-07-23T03:20:36;10.13;;;8.73;;
21677;SDS011;11000;50.360;7.582;2022-07-23T03:22:57;9.57;;;8.57;;
21677;SDS011;11000;50.360;7.582;2022-07-23T03:25:18;11.90;;;9.50;;
21677;SDS011;11000;50.360;7.582;2022-07-23T03:27:38;12.80;;;9.90;;
21677;SDS011;11000;50.360;7.582;2022-07-23T03:29:59;10.27;;;9.27;;
21677;SDS011;11000;50.360;7.582;2022-07-23T03:32:21;12.43;;;9.73;;
21677;SDS011;11000;50.360;7.582;2022-07-23T03:34:42;11.47;;;9.40;;
21677;SDS011;11000;50.360;7.582;2022-07-23T03:37:02;14.40;;;11.97;;
21677;SDS011;11000;50.360;7.582;2022-07-23T03:39:23;11.53;;;10.33;;
21677;SDS011;11000;50.360;7.582;2022-07-23T03:41:43;12.80;;;10.93;;
21677;SDS011;11000;50.360;7.582;2022-07-23T03:44:04;13.63;;;11.90;;
21677;SDS011;11000;50.360;7.582;2022-07-23T03:46:25;15.00;;;11.33;;
21677;SDS011;11000;50.360;7.582;2022-07-23T03:48:45;15.33;;;11.57;;
21677;SDS011;11000;50.360;7.582;2022-07-23T03:51:06;14.53;;;11.37;;
21677;SDS011;11000;50.360;7.582;2022-07-23T03:53:27;12.77;;;11.27;;
21677;SDS011;11000;50.360;7.582;2022-07-23T03:55:48;17.37;;;12.00;;
21677;SDS011;11000;50.360;7.582;2022-07-23T03:58:08;13.97;;;11.37;;
21677;SDS011;11000;50.360;7.582;2022-07-23T04:00:29;13.50;;;11.30;;
21677;SDS011;11000;50.360;7.582;2022-07-23T04:02:49;15.33;;;11.70;;
21677;SDS011;11000;50.360;7.582;2022-07-23T04:05:10;14.40;;;11.20;;
21677;SDS011;11000;50.360;7.582;2022-07-23T04:07:30;14.93;;;12.17;;
21677;SDS011;11000;50.360;7.582;2022-07-23T04:09:51;16.23;;;12.77;;
21677;SDS011;11000;50.360;7.582;2022-07-23T04:12:12;15.10;;;12.27;;
21677;SDS011;11000;50.360;7.582;2022-07-23T04:14:32;14.83;;;12.70;;
21677;SDS011;11000;50.360;7.582;2022-07-23T04:16:53;15.57;;;12.40;;
21677;SDS011;11000;50.360;7.582;2022-07-23T04:19:14;16.30;;;13.10;;
21677;SDS011;11000;50.360;7.582;2022-07-23T04:21:34;18.23;;;11.93;;
21677;SDS011;11000;50.360;7.582;2022-07-23T04:23:55;18.00;;;13.27;;
21677;SDS011;11000;50.360;7.582;2022-07-23T04:26:15;15.97;;;12.67;;
21677;SDS011;11000;50.360;7.582;2022-07-23T04:28:36;14.93;;;13.33;;
21677;SDS011;11000;50.360;7.582;2022-07-23T04:30:57;18.53;;;13.30;;
21677;SDS011;11000;50.360;7.582;2022-07-23T04:33:17;19.57;;;14.03;;
21677;SDS011;11000;50.360;7.582;2022-07-23T04:35:39;17.23;;;14.73;;
21677;SDS011;11000;50.360;7.582;2022-07-23T04:37:59;16.70;;;14.40;;
21677;SDS011;11000;50.360;7.582;2022-07-23T04:40:20;19.40;;;14.57;;
21677;SDS011;11000;50.360;7.582;2022-07-23T04:42:41;18.00;;;15.00;;
21677;SDS011;11000;50.360;7.582;2022-07-23T04:45:01;18.33;;;14.97;;
21677;SDS011;11000;50.360;7.582;2022-07-23T04:47:23;18.47;;;15.63;;
21677;SDS011;11000;50.360;7.582;2022-07-23T04:49:44;18.13;;;14.20;;
21677;SDS011;11000;50.360;7.582;2022-07-23T04:52:04;20.97;;;15.67;;
21677;SDS011;11000;50.360;7.582;2022-07-23T04:54:25;21.50;;;16.03;;
21677;SDS011;11000;50.360;7.582;2022-07-23T04:56:45;21.87;;;16.37;;
21677;SDS011;11000;50.360;7.582;2022-07-23T04:59:06;23.57;;;15.77;;
21677;SDS011;11000;50.360;7.582;2022-07-23T05:01:26;18.73;;;14.57;;
21677;SDS011;11000;50.360;7.582;2022-07-23T05:03:47;21.27;;;16.00;;
21677;SDS011;11000;50.360;7.582;2022-07-23T05:06:08;20.90;;;15.67;;
21677;SDS011;11000;50.360;7.582;2022-07-23T05:08:29;21.30;;;17.03;;
21677;SDS011;11000;50.360;7.582;2022-07-23T05:10:49;20.97;;;16.27;;
21677;SDS011;11000;50.360;7.582;2022-07-23T05:13:10;21.27;;;16.17;;
21677;SDS011;11000;50.360;7.582;2022-07-23T05:15:30;19.20;;;16.27;;
21677;SDS011;11000;50.360;7.582;2022-07-23T05:17:51;19.90;;;16.50;;
21677;SDS011;11000;50.360;7.582;2022-07-23T05:20:12;21.77;;;16.93;;
21677;SDS011;11000;50.360;7.582;2022-07-23T05:22:33;20.50;;;16.50;;
21677;SDS011;11000;50.360;7.582;2022-07-23T05:24:53;20.50;;;16.53;;
21677;SDS011;11000;50.360;7.582;2022-07-23T05:27:14;20.40;;;15.73;;
21677;SDS011;11000;50.360;7.582;2022-07-23T05:29:34;20.50;;;16.17;;
21677;SDS011;11000;50.360;7.582;2022-07-23T05:31:55;20.60;;;16.60;;
21677;SDS011;11000;50.360;7.582;2022-07-23T05:34:15;21.60;;;16.03;;
21677;SDS011;11000;50.360;7.582;2022-07-23T05:36:36;20.77;;;15.23;;
21677;SDS011;11000;50.360;7.582;2022-07-23T05:38:56;21.30;;;15.37;;
21677;SDS011;11000;50.360;7.582;2022-07-23T05:41:17;19.97;;;14.63;;
21677;SDS011;11000;50.360;7.582;2022-07-23T05:43:37;17.73;;;14.40;;
21677;SDS011;11000;50.360;7.582;2022-07-23T05:45:58;20.07;;;14.07;;
21677;SDS011;11000;50.360;7.582;2022-07-23T05:48:19;18.00;;;13.57;;
21677;SDS011;11000;50.360;7.582;2022-07-23T05:50:40;20.70;;;14.47;;
21677;SDS011;11000;50.360;7.582;2022-07-23T05:53:00;17.33;;;13.43;;
21677;SDS011;11000;50.360;7.582;2022-07-23T05:55:21;17.07;;;11.97;;
21677;SDS011;11000;50.360;7.582;2022-07-23T05:57:41;17.37;;;13.73;;
21677;SDS011;11000;50.360;7.582;2022-07-23T06:00:03;17.37;;;13.10;;
21677;SDS011;11000;50.360;7.582;2022-07-23T06:02:24;13.57;;;11.90;;
21677;SDS011;11000;50.360;7.582;2022-07-23T06:04:45;14.97;;;11.50;;
21677;SDS011;11000;50.360;7.582;2022-07-23T06:07:06;13.90;;;11.77;;
21677;SDS011;11000;50.360;7.582;2022-07-23T06:09:26;18.83;;;12.57;;
21677;SDS011;11000;50.360;7.582;2022-07-23T06:11:47;15.40;;;11.77;;
21677;SDS011;11000;50.360;7.582;2022-07-23T06:14:07;16.17;;;11.87;;
21677;SDS011;11000;50.360;7.582;2022-07-23T06:16:28;13.83;;;10.77;;
21677;SDS011;11000;50.360;7.582;2022-07-23T06:18:48;12.20;;;9.57;;
21677;SDS011;11000;50.360;7.582;2022-07-23T06:21:09;12.40;;;9.23;;
21677;SDS011;11000;50.360;7.582;2022-07-23T06:23:29;13.23;;;10.07;;
21677;SDS011;11000;50.360;7.582;2022-07-23T06:25:50;12.20;;;10.47;;
21677;SDS011;11000;50.360;7.582;2022-07-23T06:28:10;12.67;;;10.63;;
21677;SDS011;11000;50.360;7.582;2022-07-23T06:30:31;14.80;;;11.20;;
21677;SDS011;11000;50.360;7.582;2022-07-23T06:32:51;15.43;;;10.83;;
21677;SDS011;11000;50.360;7.582;2022-07-23T06:35:12;11.73;;;10.33;;
21677;SDS011;11000;50.360;7.582;2022-07-23T06:37:32;12.43;;;10.80;;
21677;SDS011;11000;50.360;7.582;2022-07-23T06:39:53;13.87;;;11.23;;
21677;SDS011;11000;50.360;7.582;2022-07-23T06:42:13;12.20;;;9.87;;
21677;SDS011;11000;50.360;7.582;2022-07-23T06:44:34;10.80;;;8.53;;
21677;SDS011;11000;50.360;7.582;2022-07-23T06:46:55;13.40;;;10.00;;
21677;SDS011;11000;50.360;7.582;2022-07-23T06:49:16;11.23;;;9.03;;
21677;SDS011;11000;50.360;7.582;2022-07-23T06:51:36;10.17;;;9.07;;
21677;SDS011;11000;50.360;7.582;2022-07-23T06:53:57;11.33;;;8.90;;
21677;SDS011;11000;50.360;7.582;2022-07-23T06:56:18;11.90;;;9.47;;
21677;SDS011;11000;50.360;7.582;2022-07-23T06:58:39;13.03;;;9.73;;
21677;SDS011;11000;50.360;7.582;2022-07-23T07:00:59;12.23;;;9.83;;
21677;SDS011;11000;50.360;7.582;2022-07-23T07:03:20;9.07;;;8.17;;
21677;SDS011;11000;50.360;7.582;2022-07-23T07:05:40;12.47;;;8.77;;
21677;SDS011;11000;50.360;7.582;2022-07-23T07:08:01;11.27;;;8.97;;
21677;SDS011;11000;50.360;7.582;2022-07-23T07:10:22;9.90;;;7.90;;
21677;SDS011;11000;50.360;7.582;2022-07-23T07:12:42;10.43;;;7.70;;
21677;SDS011;11000;50.360;7.582;2022-07-23T07:15:03;8.50;;;7.40;;
21677;SDS011;11000;50.360;7.582;2022-07-23T07:17:24;9.40;;;7.40;;
21677;SDS011;11000;50.360;7.582;2022-07-23T07:19:44;9.43;;;7.03;;
21677;SDS011;11000;50.360;7.582;2022-07-23T07:22:06;7.67;;;6.60;;
21677;SDS011;11000;50.360;7.582;2022-07-23T07:24:26;24.80;;;9.67;;
21677;SDS011;11000;50.360;7.582;2022-07-23T07:26:47;9.17;;;7.50;;
21677;SDS011;11000;50.360;7.582;2022-07-23T07:29:07;14.67;;;7.27;;
21677;SDS011;11000;50.360;7.582;2022-07-23T07:31:28;8.30;;;6.50;;
21677;SDS011;11000;50.360;7.582;2022-07-23T07:33:49;9.63;;;7.40;;
21677;SDS011;11000;50.360;7.582;2022-07-23T07:36:09;7.97;;;6.93;;
21677;SDS011;11000;50.360;7.582;2022-07-23T07:38:30;9.23;;;8.17;;
21677;SDS011;11000;50.360;7.582;2022-07-23T07:40:51;9.60;;;8.30;;
21677;SDS011;11000;50.360;7.582;2022-07-23T07:43:12;10.60;;;7.83;;
21677;SDS011;11000;50.360;7.582;2022-07-23T07:45:33;11.03;;;7.97;;
21677;SDS011;11000;50.360;7.582;2022-07-23T07:47:53;9.40;;;8.23;;
21677;SDS011;11000;50.360;7.582;2022-07-23T07:50:14;9.80;;;8.63;;
21677;SDS011;11000;50.360;7.582;2022-07-23T07:52:35;9.23;;;8.27;;
21677;SDS011;11000;50.360;7.582;2022-07-23T07:54:56;9.90;;;8.90;;
21677;SDS011;11000;50.360;7.582;2022-07-23T07:57:17;8.80;;;6.83;;
21677;SDS011;11000;50.360;7.582;2022-07-23T07:59:37;9.90;;;7.67;;
21677;SDS011;11000;50.360;7.582;2022-07-23T08:01:58;9.33;;;7.43;;
21677;SDS011;11000;50.360;7.582;2022-07-23T08:04:18;8.30;;;7.33;;
21677;SDS011;11000;50.360;7.582;2022-07-23T08:06:39;8.73;;;7.83;;
21677;SDS011;11000;50.360;7.582;2022-07-23T08:08:59;8.60;;;7.47;;
21677;SDS011;11000;50.360;7.582;2022-07-23T08:11:20;10.07;;;7.33;;
21677;SDS011;11000;50.360;7.582;2022-07-23T08:13:40;8.30;;;7.17;;
21677;SDS011;11000;50.360;7.582;2022-07-23T08:16:01;11.27;;;7.47;;
21677;SDS011;11000;50.360;7.582;2022-07-23T08:18:22;8.00;;;6.57;;
21677;SDS011;11000;50.360;7.582;2022-07-23T08:20:42;7.57;;;6.30;;
21677;SDS011;11000;50.360;7.582;2022-07-23T08:23:04;7.37;;;5.93;;
21677;SDS011;11000;50.360;7.582;2022-07-23T08:25:30;5.90;;;5.30;;
21677;SDS011;11000;50.360;7.582;2022-07-23T08:27:52;6.70;;;5.60;;
21677;SDS011;11000;50.360;7.582;2022-07-23T08:30:13;6.73;;;6.00;;
21677;SDS011;11000;50.360;7.582;2022-07-23T08:32:47;6.03;;;5.40;;
21677;SDS011;11000;50.360;7.582;2022-07-23T08:35:08;7.13;;;5.70;;
21677;SDS011;11000;50.360;7.582;2022-07-23T08:37:29;9.50;;;6.30;;
21677;SDS011;11000;50.360;7.582;2022-07-23T08:39:49;6.73;;;5.73;;
21677;SDS011;11000;50.360;7.582;2022-07-23T08:42:10;7.47;;;5.97;;
21677;SDS011;11000;50.360;7.582;2022-07-23T08:44:35;7.83;;;6.07;;
21677;SDS011;11000;50.360;7.582;2022-07-23T08:46:57;8.40;;;6.27;;
21677;SDS011;11000;50.360;7.582;2022-07-23T08:49:17;9.17;;;6.50;;
21677;SDS011;11000;50.360;7.582;2022-07-23T08:51:38;6.53;;;5.93;;
21677;SDS011;11000;50.360;7.582;2022-07-23T08:53:59;5.97;;;5.47;;
21677;SDS011;11000;50.360;7.582;2022-07-23T08:56:21;7.60;;;6.20;;
21677;SDS011;11000;50.360;7.582;2022-07-23T08:58:41;6.10;;;5.50;;
21677;SDS011;11000;50.360;7.582;2022-07-23T09:01:02;8.03;;;6.03;;
21677;SDS011;11000;50.360;7.582;2022-07-23T09:03:30;6.17;;;5.57;;
21677;SDS011;11000;50.360;7.582;2022-07-23T09:05:53;6.43;;;5.43;;
21677;SDS011;11000;50.360;7.582;2022-07-23T09:08:20;6.27;;;5.37;;
21677;SDS011;11000;50.360;7.582;2022-07-23T09:11:04;5.57;;;4.97;;
21677;SDS011;11000;50.360;7.582;2022-07-23T09:13:28;5.70;;;5.03;;
21677;SDS011;11000;50.360;7.582;2022-07-23T09:15:49;5.47;;;4.60;;
21677;SDS011;11000;50.360;7.582;2022-07-23T09:18:11;4.77;;;4.37;;
21677;SDS011;11000;50.360;7.582;2022-07-23T09:20:36;7.13;;;4.50;;
21677;SDS011;11000;50.360;7.582;2022-07-23T09:22:56;5.57;;;5.07;;
21677;SDS011;11000;50.360;7.582;2022-07-23T09:25:18;4.83;;;4.40;;
21677;SDS011;11000;50.360;7.582;2022-07-23T09:30:20;4.20;;;3.80;;
21677;SDS011;11000;50.360;7.582;2022-07-23T09:35:54;3.70;;;2.97;;
21677;SDS011;11000;50.360;7.582;2022-07-23T09:38:14;3.70;;;3.20;;
21677;SDS011;11000;50.360;7.582;2022-07-23T09:40:35;5.03;;;3.50;;
21677;SDS011;11000;50.360;7.582;2022-07-23T09:42:56;3.40;;;3.10;;
21677;SDS011;11000;50.360;7.582;2022-07-23T09:45:16;4.57;;;3.53;;
21677;SDS011;11000;50.360;7.582;2022-07-23T09:47:37;4.10;;;3.20;;
21677;SDS011;11000;50.360;7.582;2022-07-23T09:52:29;3.73;;;2.90;;
21677;SDS011;11000;50.360;7.582;2022-07-23T09:54:50;5.40;;;3.17;;
21677;SDS011;11000;50.360;7.582;2022-07-23T09:57:19;3.30;;;3.00;;
21677;SDS011;11000;50.360;7.582;2022-07-23T09:59:41;3.13;;;2.80;;
21677;SDS011;11000;50.360;7.582;2022-07-23T10:02:04;3.20;;;3.00;;
21677;SDS011;11000;50.360;7.582;2022-07-23T10:04:27;4.40;;;3.13;;
21677;SDS011;11000;50.360;7.582;2022-07-23T10:06:51;5.77;;;3.60;;
21677;SDS011;11000;50.360;7.582;2022-07-23T10:09:13;3.77;;;3.07;;
21677;SDS011;11000;50.360;7.582;2022-07-23T10:11:41;3.20;;;2.90;;
21677;SDS011;11000;50.360;7.582;2022-07-23T10:14:02;4.70;;;3.10;;
21677;SDS011;11000;50.360;7.582;2022-07-23T10:16:25;2.93;;;2.70;;
21677;SDS011;11000;50.360;7.582;2022-07-23T10:18:46;5.30;;;2.97;;
21677;SDS011;11000;50.360;7.582;2022-07-23T10:21:08;3.00;;;2.80;;
21677;SDS011;11000;50.360;7.582;2022-07-23T10:23:33;4.90;;;3.47;;
21677;SDS011;11000;50.360;7.582;2022-07-23T10:28:29;2.90;;;2.70;;
21677;SDS011;11000;50.360;7.582;2022-07-23T10:31:06;2.97;;;2.77;;
21677;SDS011;11000;50.360;7.582;2022-07-23T10:36:18;2.97;;;2.60;;
21677;SDS011;11000;50.360;7.582;2022-07-23T10:38:48;3.50;;;2.70;;
21677;SDS011;11000;50.360;7.582;2022-07-23T10:41:15;2.70;;;2.50;;
21677;SDS011;11000;50.360;7.582;2022-07-23T10:44:06;3.17;;;2.80;;
21677;SDS011;11000;50.360;7.582;2022-07-23T10:46:29;3.13;;;2.70;;
21677;SDS011;11000;50.360;7.582;2022-07-23T10:49:21;2.60;;;2.40;;
21677;SDS011;11000;50.360;7.582;2022-07-23T10:54:47;2.83;;;2.40;;
21677;SDS011;11000;50.360;7.582;2022-07-23T10:57:27;3.63;;;2.80;;
21677;SDS011;11000;50.360;7.582;2022-07-23T11:02:22;2.57;;;2.37;;
21677;SDS011;11000;50.360;7.582;2022-07-23T11:04:50;2.70;;;2.50;;
21677;SDS011;11000;50.360;7.582;2022-07-23T11:07:11;2.47;;;2.27;;
21677;SDS011;11000;50.360;7.582;2022-07-23T11:09:39;2.63;;;2.43;;
21677;SDS011;11000;50.360;7.582;2022-07-23T11:15:06;4.90;;;2.63;;
21677;SDS011;11000;50.360;7.582;2022-07-23T11:25:04;3.80;;;2.70;;
21677;SDS011;11000;50.360;7.582;2022-07-23T11:27:38;3.73;;;2.83;;
21677;SDS011;11000;50.360;7.582;2022-07-23T11:30:02;3.30;;;3.00;;
21677;SDS011;11000;50.360;7.582;2022-07-23T11:32:27;3.27;;;2.97;;
21677;SDS011;11000;50.360;7.582;2022-07-23T11:34:51;4.27;;;3.30;;
21677;SDS011;11000;50.360;7.582;2022-07-23T11:37:29;3.33;;;2.90;;
21677;SDS011;11000;50.360;7.582;2022-07-23T11:39:57;3.10;;;2.80;;
21677;SDS011;11000;50.360;7.582;2022-07-23T11:42:18;3.33;;;2.90;;
21677;SDS011;11000;50.360;7.582;2022-07-23T11:44:39;2.90;;;2.60;;
21677;SDS011;11000;50.360;7.582;2022-07-23T11:47:03;2.87;;;2.67;;
21677;SDS011;11000;50.360;7.582;2022-07-23T11:49:26;4.03;;;3.10;;
21677;SDS011;11000;50.360;7.582;2022-07-23T11:52:01;5.93;;;3.63;;
21677;SDS011;11000;50.360;7.582;2022-07-23T11:54:31;3.30;;;3.00;;
21677;SDS011;11000;50.360;7.582;2022-07-23T11:56:56;3.20;;;2.90;;
21677;SDS011;11000;50.360;7.582;2022-07-23T11:59:17;3.47;;;2.87;;
21677;SDS011;11000;50.360;7.582;2022-07-23T12:01:55;3.40;;;3.10;;
21677;SDS011;11000;50.360;7.582;2022-07-23T12:04:20;3.43;;;3.13;;
21677;SDS011;11000;50.360;7.582;2022-07-23T12:06:41;3.90;;;3.50;;
21677;SDS011;11000;50.360;7.582;2022-07-23T12:09:01;3.77;;;3.47;;
21677;SDS011;11000;50.360;7.582;2022-07-23T12:11:22;3.63;;;3.20;;
21677;SDS011;11000;50.360;7.582;2022-07-23T12:13:43;3.63;;;3.33;;
21677;SDS011;11000;50.360;7.582;2022-07-23T12:16:15;3.60;;;3.27;;
21677;SDS011;11000;50.360;7.582;2022-07-23T12:18:37;3.80;;;3.50;;
21677;SDS011;11000;50.360;7.582;2022-07-23T12:21:02;4.90;;;3.10;;
21677;SDS011;11000;50.360;7.582;2022-07-23T12:23:24;3.33;;;3.03;;
21677;SDS011;11000;50.360;7.582;2022-07-23T12:25:49;3.90;;;3.20;;
21677;SDS011;11000;50.360;7.582;2022-07-23T12:28:14;3.30;;;3.00;;
21677;SDS011;11000;50.360;7.582;2022-07-23T12:30:39;3.17;;;2.97;;
21677;SDS011;11000;50.360;7.582;2022-07-23T12:33:05;3.30;;;3.00;;
21677;SDS011;11000;50.360;7.582;2022-07-23T12:35:32;3.40;;;3.10;;
21677;SDS011;11000;50.360;7.582;2022-07-23T12:38:00;3.60;;;3.30;;
21677;SDS011;11000;50.360;7.582;2022-07-23T12:40:33;3.40;;;3.00;;
21677;SDS011;11000;50.360;7.582;2022-07-23T12:42:58;3.73;;;3.13;;
21677;SDS011;11000;50.360;7.582;2022-07-23T12:45:24;3.50;;;3.20;;
21677;SDS011;11000;50.360;7.582;2022-07-23T12:48:03;3.90;;;3.43;;
21677;SDS011;11000;50.360;7.582;2022-07-23T12:55:30;3.40;;;3.00;;
21677;SDS011;11000;50.360;7.582;2022-07-23T12:57:50;4.47;;;3.03;;
21677;SDS011;11000;50.360;7.582;2022-07-23T13:00:11;2.73;;;2.53;;
21677;SDS011;11000;50.360;7.582;2022-07-23T13:02:45;3.00;;;2.80;;
21677;SDS011;11000;50.360;7.582;2022-07-23T13:05:06;3.33;;;3.03;;
21677;SDS011;11000;50.360;7.582;2022-07-23T13:07:27;5.73;;;3.10;;
21677;SDS011;11000;50.360;7.582;2022-07-23T13:09:48;3.20;;;3.00;;
21677;SDS011;11000;50.360;7.582;2022-07-23T13:12:08;3.33;;;3.00;;
21677;SDS011;11000;50.360;7.582;2022-07-23T13:14:29;3.70;;;3.23;;
21677;SDS011;11000;50.360;7.582;2022-07-23T13:16:51;4.07;;;3.20;;
21677;SDS011;11000;50.360;7.582;2022-07-23T13:19:14;3.17;;;2.93;;
21677;SDS011;11000;50.360;7.582;2022-07-23T13:21:39;4.97;;;3.07;;
21677;SDS011;11000;50.360;7.582;2022-07-23T13:24:00;3.80;;;3.50;;
21677;SDS011;11000;50.360;7.582;2022-07-23T13:26:21;4.00;;;3.00;;
21677;SDS011;11000;50.360;7.582;2022-07-23T13:28:43;3.80;;;3.10;;
21677;SDS011;11000;50.360;7.582;2022-07-23T13:31:03;4.40;;;3.40;;
21677;SDS011;11000;50.360;7.582;2022-07-23T13:33:24;6.87;;;3.47;;
21677;SDS011;11000;50.360;7.582;2022-07-23T13:35:45;3.70;;;3.40;;
21677;SDS011;11000;50.360;7.582;2022-07-23T13:38:07;3.70;;;3.03;;
21677;SDS011;11000;50.360;7.582;2022-07-23T13:40:28;3.97;;;3.37;;
21677;SDS011;11000;50.360;7.582;2022-07-23T13:42:49;3.83;;;3.40;;
21677;SDS011;11000;50.360;7.582;2022-07-23T13:45:10;3.63;;;2.90;;
21677;SDS011;11000;50.360;7.582;2022-07-23T13:47:31;3.30;;;3.10;;
21677;SDS011;11000;50.360;7.582;2022-07-23T13:49:52;4.05;;;3.55;;
21677;SDS011;11000;50.360;7.582;2022-07-23T13:52:13;5.10;;;3.30;;
21677;SDS011;11000;50.360;7.582;2022-07-23T13:54:35;4.18;;;3.78;;
21677;SDS011;11000;50.360;7.582;2022-07-23T13:56:56;4.23;;;3.57;;
21677;SDS011;11000;50.360;7.582;2022-07-23T13:59:17;5.13;;;3.43;;
21677;SDS011;11000;50.360;7.582;2022-07-23T14:01:38;5.23;;;3.63;;
21677;SDS011;11000;50.360;7.582;2022-07-23T14:03:59;3.38;;;3.08;;
21677;SDS011;11000;50.360;7.582;2022-07-23T14:06:19;3.83;;;3.47;;
21677;SDS011;11000;50.360;7.582;2022-07-23T14:08:40;6.07;;;4.10;;
21677;SDS011;11000;50.360;7.582;2022-07-23T14:11:01;3.42;;;3.10;;
21677;SDS011;11000;50.360;7.582;2022-07-23T14:13:22;3.40;;;3.10;;
21677;SDS011;11000;50.360;7.582;2022-07-23T14:15:43;3.90;;;3.03;;
21677;SDS011;11000;50.360;7.582;2022-07-23T14:18:03;4.03;;;3.63;;
21677;SDS011;11000;50.360;7.582;2022-07-23T14:20:24;5.00;;;3.80;;
21677;SDS011;11000;50.360;7.582;2022-07-23T14:22:45;4.60;;;3.53;;
21677;SDS011;11000;50.360;7.582;2022-07-23T14:25:06;4.13;;;3.73;;
21677;SDS011;11000;50.360;7.582;2022-07-23T14:27:27;5.60;;;3.90;;
21677;SDS011;11000;50.360;7.582;2022-07-23T14:29:48;4.00;;;3.67;;
21677;SDS011;11000;50.360;7.582;2022-07-23T14:32:08;5.10;;;4.37;;
21677;SDS011;11000;50.360;7.582;2022-07-23T14:34:29;4.40;;;4.00;;
21677;SDS011;11000;50.360;7.582;2022-07-23T14:36:50;4.90;;;4.00;;
21677;SDS011;11000;50.360;7.582;2022-07-23T14:39:11;4.03;;;3.23;;
21677;SDS011;11000;50.360;7.582;2022-07-23T14:41:34;5.00;;;3.53;;